Time;durP1;ratioP1;P1;durP2;ratioP2;P2;SDS_P1;SDS_P2;PMS_P1;PMS_P2;Temp;Humidity;BMP_temperature;BMP_pressure;BME280_temperature;BME280_humidity;BME280_pressure;Samples;Min_cycle;Max_cycle;Signal;HPM_P1;HPM_P2
2022/03/23 13:53:36;;;;;;;4.20;1.50;;;;;;;23.37;39.66;101905.06;5070680;27;1367645;-72
2022/03/23 13:56:01;;;;;;;2.50;1.40;;;;;;;23.53;39.09;101886.41;5112295;28;20044;-73
2022/03/23 13:58:27;;;;;;;4.10;1.60;;;;;;;23.68;38.84;101886.16;5108084;28;20062;-73
2022/03/23 14:00:55;;;;;;;6.15;1.40;;;;;;;23.70;38.40;101860.16;5119043;28;20480;-72
2022/03/23 14:03:31;;;;;;;3.42;1.38;;;;;;;23.88;38.28;101877.81;5111993;28;20039;-75
2022/03/23 14:06:07;;;;;;;3.28;1.42;;;;;;;24.02;37.85;101898.66;5121490;28;20040;-73
2022/03/23 14:08:36;;;;;;;3.20;1.38;;;;;;;24.12;37.72;101896.28;5117337;28;20460;-74
2022/03/23 14:11:03;;;;;;;3.65;1.60;;;;;;;24.20;37.67;101881.44;5104008;28;20035;-75
2022/03/23 14:13:29;;;;;;;3.85;1.45;;;;;;;24.20;37.66;101881.44;5105791;28;20053;-75
2022/03/23 14:17:01;;;;;;;3.40;1.20;;;;;;;24.36;36.94;101896.53;5083475;27;1365860;-76
2022/03/23 14:19:27;;;;;;;4.65;1.40;;;;;;;24.38;36.91;101875.16;5108113;28;20035;-74
2022/03/23 14:21:57;;;;;;;3.83;1.48;;;;;;;24.46;36.94;101901.53;5113989;28;20398;-73
2022/03/23 14:24:24;;;;;;;2.20;1.10;;;;;;;24.53;37.01;101896.84;5115920;28;20023;-74
2022/03/23 14:26:50;;;;;;;3.63;1.48;;;;;;;24.56;36.80;101899.16;5111996;28;20039;-73
2022/03/23 14:29:22;;;;;;;3.38;1.20;;;;;;;24.66;36.69;101912.41;5112478;28;20023;-81
2022/03/23 14:32:21;;;;;;;3.80;1.10;;;;;;;19.66;7.75;101881.16;5082254;27;1978895;-82
2022/03/23 14:34:49;;;;;;;7.43;1.30;;;;;;;17.37;8.35;101881.25;5108188;28;20051;-82
2022/03/23 14:37:15;;;;;;;11.55;1.50;;;;;;;15.80;9.23;101898.63;5099723;28;20045;-83
2022/03/23 14:39:42;;;;;;;3.42;1.17;;;;;;;14.54;9.70;101887.41;5111907;28;20043;-81
2022/03/23 14:42:10;;;;;;;5.80;1.45;;;;;;;13.83;10.27;101890.09;5104243;28;20038;-79
2022/03/23 14:44:37;;;;;;;2.22;1.00;;;;;;;12.53;10.40;101890.00;5125533;28;20031;-80
2022/03/23 14:47:09;;;;;;;7.65;1.35;;;;;;;11.98;10.95;101896.78;5127918;28;20051;-80
2022/03/23 14:49:39;;;;;;;4.18;1.40;;;;;;;11.38;11.38;101894.06;5093989;28;20031;-81
2022/03/23 14:52:09;;;;;;;5.82;1.42;;;;;;;10.89;11.52;101898.38;5079121;28;20374;-79
2022/03/23 14:54:39;;;;;;;4.65;0.95;;;;;;;10.80;11.68;101890.25;5107845;28;20096;-81
2022/03/23 14:57:12;;;;;;;4.32;1.00;;;;;;;11.68;11.33;101888.75;5113938;28;20085;-80
2022/03/23 14:59:52;;;;;;;7.40;1.20;;;;;;;10.85;11.50;101885.31;5088559;28;20051;-82
2022/03/23 15:02:18;;;;;;;6.50;1.30;;;;;;;10.70;12.36;101899.13;5118266;28;20613;-81
2022/03/23 15:04:47;;;;;;;6.93;1.20;;;;;;;11.01;12.14;101891.06;5116628;28;20186;-81
2022/03/23 15:15:30;;;;;;;8.85;1.25;;;;;;;10.11;12.94;101903.16;5119917;28;20054;-80
2022/03/23 15:18:08;;;;;;;5.15;1.40;;;;;;;10.32;12.98;101916.66;5128279;27;20083;-80
2022/03/23 15:20:35;;;;;;;7.65;2.25;;;;;;;10.88;13.10;101895.81;5110965;28;20084;-81
2022/03/23 15:23:00;;;;;;;;;;;;;;;11.33;12.63;101911.59;5109228;28;20062;-80
2022/03/23 15:25:26;;;;;;;10.63;3.78;;;;;;;10.76;13.03;101913.84;5120144;28;20012;-81
2022/03/23 15:27:53;;;;;;;11.80;4.13;;;;;;;10.19;13.53;101910.56;5116036;27;20122;-81
2022/03/23 15:30:22;;;;;;;11.00;3.97;;;;;;;9.92;13.50;101917.22;5114930;28;20100;-82
2022/03/23 15:32:49;;;;;;;11.07;3.03;;;;;;;9.54;13.78;101895.34;5121088;28;20047;-84
2022/03/23 15:35:18;;;;;;;13.25;2.85;;;;;;;9.28;13.53;101909.88;5126518;28;20035;-80
2022/03/23 15:37:50;;;;;;;10.40;4.13;;;;;;;9.35;13.37;101912.94;5117904;28;20020;-81
2022/03/23 15:40:15;;;;;;;16.10;4.60;;;;;;;9.49;13.46;101904.63;5098937;28;20044;-83
2022/03/23 15:45:28;;;;;;;;;;;;;;;10.53;12.62;101911.28;5100873;28;20078;-84
2022/03/23 15:47:53;;;;;;;4.38;1.98;;;;;;;10.09;13.22;101906.91;5112316;28;20006;-83
2022/03/23 15:50:21;;;;;;;5.38;1.60;;;;;;;9.57;13.43;101904.00;5097639;28;20036;-83
2022/03/23 15:52:50;;;;;;;3.05;1.48;;;;;;;9.25;13.66;101920.88;5099713;28;20379;-82
2022/03/23 15:55:19;;;;;;;3.00;1.48;;;;;;;9.06;13.83;101916.09;5093395;28;20369;-84
2022/03/23 15:57:49;;;;;;;8.70;1.65;;;;;;;9.09;13.90;101921.22;5092444;28;20107;-82
2022/03/23 16:00:17;;;;;;;2.55;1.25;;;;;;;8.69;14.53;101911.91;5091944;28;20055;-79
2022/03/23 16:02:47;;;;;;;5.28;1.80;;;;;;;8.62;14.89;101917.72;5103095;28;20173;-82
2022/03/23 16:05:38;;;;;;;;;;;;;;;8.61;14.92;101924.03;5097400;28;20032;-81
2022/03/23 16:08:08;;;;;;;3.38;1.70;;;;;;;8.79;14.67;101919.09;5110104;28;20441;-81
2022/03/23 16:10:34;;;;;;;3.55;1.77;;;;;;;8.54;15.30;101925.47;5084828;28;20067;-80
2022/03/23 16:13:05;;;;;;;5.72;1.30;;;;;;;8.07;15.78;101921.84;5109422;28;20039;-83
2022/03/23 16:15:31;;;;;;;4.80;1.60;;;;;;;7.93;15.93;101919.31;5114258;28;20031;-84
2022/03/23 16:18:02;;;;;;;7.28;1.50;;;;;;;7.77;16.42;101928.50;5121240;28;20054;-79
2022/03/23 16:20:28;;;;;;;5.60;1.50;;;;;;;7.45;17.00;101917.44;5112166;28;20027;-81
2022/03/23 16:22:54;;;;;;;;;;;;;;;7.26;17.01;101920.56;5107869;28;20032;-82
2022/03/23 16:25:23;;;;;;;6.55;1.60;;;;;;;6.96;17.54;101908.38;5102431;28;20004;-81
2022/03/23 16:27:53;;;;;;;5.70;1.42;;;;;;;6.83;18.07;101912.84;5103817;28;20066;-81
2022/03/23 16:30:21;;;;;;;4.03;1.58;;;;;;;6.76;18.60;101917.75;5086824;28;20040;-80
2022/03/23 16:32:54;;;;;;;6.82;1.70;;;;;;;6.61;19.21;101923.31;5101866;28;20051;-81
2022/03/23 16:35:20;;;;;;;5.65;1.70;;;;;;;6.42;20.29;101908.53;5105934;28;20032;-80
2022/03/23 16:37:46;;;;;;;4.90;2.22;;;;;;;6.40;20.61;101931.81;5106154;28;20037;-80
2022/03/23 16:40:21;;;;;;;7.40;2.08;;;;;;;6.35;20.77;101933.94;5103635;28;20507;-80
2022/03/23 16:42:57;;;;;;;4.68;2.28;;;;;;;6.32;21.37;101947.50;5091563;28;20039;-82
2022/03/23 16:45:27;;;;;;;5.63;2.00;;;;;;;6.20;21.34;101941.16;5102219;28;20530;-80
2022/03/23 16:47:54;;;;;;;4.85;2.05;;;;;;;6.05;22.00;101945.69;5105190;28;20084;-78
2022/03/23 16:50:22;;;;;;;5.00;1.80;;;;;;;5.93;22.42;101943.78;5092152;28;20035;-80
2022/03/23 16:52:49;;;;;;;4.90;2.30;;;;;;;5.80;22.99;101942.88;5071326;28;20028;-79
2022/03/23 16:55:15;;;;;;;7.72;2.30;;;;;;;5.72;23.58;101948.69;5103586;28;20162;-81
2022/03/23 16:57:41;;;;;;;7.90;2.40;;;;;;;5.57;24.14;101936.31;5103067;28;20032;-79
2022/03/23 17:00:10;;;;;;;6.90;1.98;;;;;;;5.50;24.46;101951.84;5104458;28;20024;-80
2022/03/23 17:12:25;;;;;;;4.97;2.35;;;;;;;5.39;24.83;101943.69;5106122;28;20039;-81
2022/03/23 17:13:38;;;;;;;6.15;1.90;;;;;;;5.19;25.85;101943.09;5102899;28;20472;-82
2022/03/23 17:16:04;;;;;;;7.13;3.00;;;;;;;5.10;25.91;101935.66;5102704;27;20050;-80
2022/03/23 17:18:29;;;;;;;6.22;2.50;;;;;;;5.04;25.99;101938.72;5107860;28;20483;-80
2022/03/23 17:20:56;;;;;;;6.82;2.40;;;;;;;5.03;25.99;101937.00;5107994;28;20031;-80
2022/03/23 17:23:21;;;;;;;5.83;2.80;;;;;;;4.99;26.16;101931.00;5105875;28;20157;-80
2022/03/23 17:25:47;;;;;;;4.72;2.70;;;;;;;4.85;26.25;101918.53;5108286;28;20031;-82
2022/03/23 17:28:13;;;;;;;8.65;2.80;;;;;;;4.89;26.26;101923.66;5109737;28;20123;-79
2022/03/23 17:30:40;;;;;;;5.70;2.67;;;;;;;4.89;26.23;101936.97;5108287;28;20039;-77
2022/03/23 17:33:06;;;;;;;10.77;2.30;;;;;;;4.88;26.51;101944.13;5107299;28;20032;-79
2022/03/23 17:35:33;;;;;;;7.30;2.60;;;;;;;4.88;27.08;101944.13;5109939;28;20036;-78
2022/03/23 17:38:07;;;;;;;8.95;2.47;;;;;;;4.92;26.47;101939.50;5103766;28;20078;-81
2022/03/23 17:40:35;;;;;;;5.65;2.70;;;;;;;4.97;26.26;101943.56;5100605;28;20117;-78
2022/03/23 17:43:01;;;;;;;4.32;1.85;;;;;;;4.91;25.96;101937.75;5099806;28;20046;-80
2022/03/23 17:45:26;;;;;;;7.93;2.77;;;;;;;4.89;26.21;101937.84;5104787;28;20479;-80
2022/03/23 17:47:56;;;;;;;6.78;3.10;;;;;;;4.85;26.51;101934.50;5110808;28;20039;-80
2022/03/23 17:50:22;;;;;;;11.85;3.20;;;;;;;4.75;26.19;101933.38;5111609;28;20038;-80
2022/03/23 17:52:50;;;;;;;;;;;;;;;4.85;26.05;101947.84;5111908;28;20035;-79
2022/03/23 17:55:16;;;;;;;5.32;2.40;;;;;;;4.74;25.90;101936.97;5119896;28;19912;-79
2022/03/23 17:57:47;;;;;;;7.00;2.70;;;;;;;4.73;26.21;101940.59;5092416;28;20024;-79
2022/03/23 18:00:19;;;;;;;7.93;2.80;;;;;;;4.76;25.88;101940.41;5106586;28;20310;-79
2022/03/23 18:02:50;;;;;;;9.15;3.45;;;;;;;4.72;26.07;101946.84;5118705;28;20050;-79
2022/03/23 18:05:41;;;;;;;;;;;;;;;;;;;;;
2022/03/23 18:08:10;;;;;;;6.85;2.35;;;;;;;4.74;25.54;101942.28;5111739;28;20102;-80
2022/03/23 18:10:37;;;;;;;5.10;2.40;;;;;;;4.67;25.75;101940.94;5110404;28;20039;-82
2022/03/23 18:13:03;;;;;;;8.70;2.97;;;;;;;4.66;25.42;101923.25;5102966;28;20111;-79
2022/03/23 18:15:31;;;;;;;8.18;2.20;;;;;;;4.75;25.52;101937.81;5102865;28;20031;-79
2022/03/23 18:18:12;;;;;;;5.47;2.40;;;;;;;4.79;25.12;101945.53;5114968;28;20036;-81
2022/03/23 18:20:38;;;;;;;4.88;2.25;;;;;;;4.84;24.90;101939.94;5079549;28;20048;-80
2022/03/23 18:23:08;;;;;;;5.20;1.95;;;;;;;4.82;25.23;101940.03;5058586;28;20050;-80
2022/03/23 18:25:47;;;;;;;7.03;2.47;;;;;;;4.84;24.99;101927.44;5051041;28;20073;-80
2022/03/23 18:28:43;;;;;;;6.72;2.30;;;;;;;4.83;25.07;101920.41;5043102;28;20113;-79
2022/03/23 18:31:19;;;;;;;5.75;2.60;;;;;;;4.88;25.04;101919.28;5054547;28;20052;-80
2022/03/23 18:35:02;;;;;;;5.43;2.78;;;;;;;4.91;25.44;101932.44;5055393;28;20036;-81
2022/03/23 18:37:30;;;;;;;9.07;2.78;;;;;;;4.85;25.06;101923.00;5061601;28;20044;-83
2022/03/23 18:40:06;;;;;;;9.23;4.32;;;;;;;4.79;25.34;101913.56;5064893;28;20044;-80
2022/03/23 18:42:32;;;;;;;10.75;4.10;;;;;;;4.88;25.63;101938.81;5029586;28;20036;-81
2022/03/23 18:44:58;;;;;;;13.88;4.97;;;;;;;4.57;25.74;101910.50;5055091;28;20531;-80
2022/03/23 18:47:25;;;;;;;12.43;5.18;;;;;;;4.76;25.66;101935.06;5042360;28;20137;-81
2022/03/23 18:49:50;;;;;;;13.32;5.22;;;;;;;4.70;25.66;101932.75;5048155;28;20035;-80
2022/03/23 18:52:16;;;;;;;12.20;5.10;;;;;;;4.65;25.57;101926.84;5070557;28;20040;-82
2022/03/23 18:54:41;;;;;;;21.03;4.53;;;;;;;4.66;25.57;101933.91;5047937;28;20048;-81
2022/03/23 18:57:07;;;;;;;7.73;3.87;;;;;;;4.62;25.35;101916.41;5032174;28;20425;-80
2022/03/23 18:59:36;;;;;;;8.85;4.40;;;;;;;4.65;25.51;101916.19;5047056;28;20216;-80
2022/03/23 19:02:01;;;;;;;11.88;4.30;;;;;;;4.71;25.34;101915.84;5053877;28;20036;-81
2022/03/23 19:04:27;;;;;;;8.57;4.13;;;;;;;4.71;25.31;101915.84;5075769;28;20073;-80
2022/03/23 19:06:54;;;;;;;6.57;3.10;;;;;;;4.63;25.34;101913.63;5104385;28;20284;-79
2022/03/23 19:09:23;;;;;;;8.63;3.70;;;;;;;4.60;25.26;101907.63;5083313;28;20134;-79
2022/03/23 19:11:49;;;;;;;8.15;3.28;;;;;;;4.64;25.16;101909.16;5100687;28;20063;-82
2022/03/23 19:14:15;;;;;;;;;;;;;;;4.57;25.32;101907.81;5103134;28;20632;-80
2022/03/23 19:16:43;;;;;;;;;;;;;;;4.53;25.58;101906.28;5109350;28;19953;-78
2022/03/23 19:19:12;;;;;;;9.98;3.40;;;;;;;4.57;25.31;101898.03;5108952;28;19916;-80
2022/03/23 19:21:41;;;;;;;7.90;4.18;;;;;;;4.67;25.17;101900.13;5115648;28;20517;-81
2022/03/23 19:24:08;;;;;;;9.90;3.55;;;;;;;4.65;24.58;101900.22;5111469;28;20554;-82
2022/03/23 19:26:33;;;;;;;12.23;3.83;;;;;;;4.70;24.60;101900.78;5109728;28;20078;-80
2022/03/23 19:29:02;;;;;;;11.40;4.23;;;;;;;4.74;24.26;101889.00;5096012;28;20028;-79
2022/03/23 19:31:27;;;;;;;12.38;4.65;;;;;;;4.72;24.43;101880.25;5111022;28;20363;-80
2022/03/23 19:33:58;;;;;;;10.20;4.40;;;;;;;4.67;23.96;101887.66;5097323;28;20051;-83
2022/03/23 19:36:32;;;;;;;8.60;3.33;;;;;;;4.68;23.33;101870.72;5101428;28;20036;-82
2022/03/23 19:39:07;;;;;;;5.88;2.75;;;;;;;4.83;22.52;101880.44;5115823;28;20043;-82
2022/03/23 19:41:41;;;;;;;11.73;2.45;;;;;;;4.78;22.80;101873.72;5101235;28;20040;-85
2022/03/23 19:44:11;;;;;;;5.03;2.20;;;;;;;4.77;22.77;101877.31;5116112;28;20036;-84
2022/03/23 19:46:40;;;;;;;5.93;2.40;;;;;;;4.82;22.61;101870.75;5114178;28;20146;-80
2022/03/23 19:49:09;;;;;;;5.30;2.53;;;;;;;4.83;22.67;101874.28;5115181;28;20495;-83
2022/03/23 19:51:35;;;;;;;6.07;2.17;;;;;;;4.78;22.96;101877.22;5113768;28;20040;-82
2022/03/23 19:54:04;;;;;;;;;;;;;;;4.81;22.67;101865.50;5091896;28;20028;-82
2022/03/23 19:56:31;;;;;;;5.68;2.33;;;;;;;4.80;22.81;101859.34;5107192;28;19916;-84
2022/03/23 19:59:01;;;;;;;5.97;2.58;;;;;;;4.79;22.96;101860.28;5114714;28;20070;-81
2022/03/23 20:01:27;;;;;;;6.95;2.78;;;;;;;4.74;22.86;101857.03;5114970;28;20047;-82
2022/03/23 20:03:59;;;;;;;11.80;2.60;;;;;;;4.85;22.78;101859.91;5104586;28;20043;-82
2022/03/23 20:06:27;;;;;;;5.75;2.67;;;;;;;4.72;22.63;101837.63;5117928;28;20590;-81
2022/03/23 20:08:58;;;;;;;6.30;2.58;;;;;;;4.79;23.22;101854.09;5115538;28;20049;-83
2022/03/23 20:11:30;;;;;;;7.00;2.55;;;;;;;4.76;22.93;101843.63;5118645;28;20059;-83
2022/03/23 20:13:57;;;;;;;5.47;2.50;;;;;;;4.92;22.74;101852.38;5124618;28;20031;-84
2022/03/23 20:16:26;;;;;;;7.35;2.00;;;;;;;4.90;22.59;101840.13;5117159;28;20037;-84
2022/03/23 20:18:54;;;;;;;5.28;2.42;;;;;;;4.94;22.79;101833.63;5121835;28;20077;-81
2022/03/23 20:21:20;;;;;;;5.60;2.20;;;;;;;4.97;23.25;101836.13;5119936;28;20089;-82
2022/03/23 20:23:57;;;;;;;;;;;;;;;;;;;;;
2022/03/23 20:26:24;;;;;;;5.72;2.05;;;;;;;4.99;23.25;101816.41;5111355;28;20119;-82
2022/03/23 20:29:03;;;;;;;7.10;2.40;;;;;;;5.05;23.07;101828.47;5099549;28;20088;-85
2022/03/23 20:31:31;;;;;;;11.30;2.28;;;;;;;5.12;23.19;101827.13;5111032;28;20133;-81
2022/03/23 20:34:00;;;;;;;6.50;2.35;;;;;;;5.23;23.15;101834.47;5079349;28;20519;-84
2022/03/23 20:36:25;;;;;;;4.22;2.10;;;;;;;5.26;23.06;101832.44;5113252;28;20043;-84
2022/03/23 20:38:51;;;;;;;6.73;2.30;;;;;;;5.33;23.08;101832.06;5114411;28;21770;-84
2022/03/23 20:41:16;;;;;;;5.97;2.20;;;;;;;5.43;23.00;101833.16;5123031;28;20265;-82
2022/03/23 20:43:44;;;;;;;6.13;2.20;;;;;;;5.48;23.13;101821.28;5127607;28;20131;-83
2022/03/23 20:46:14;;;;;;;4.15;2.10;;;;;;;5.47;23.01;101816.03;5115283;28;20066;-83
2022/03/23 20:48:41;;;;;;;6.05;2.20;;;;;;;5.59;22.87;101817.88;5111956;28;20023;-83
2022/03/23 20:51:10;;;;;;;9.70;2.28;;;;;;;5.51;23.08;101801.53;5085173;28;20032;-84
2022/03/23 20:53:37;;;;;;;5.28;2.45;;;;;;;5.49;23.14;101796.28;5078630;28;20124;-82
2022/03/23 20:56:05;;;;;;;4.45;2.17;;;;;;;5.70;22.88;101820.72;5107380;28;20062;-83
2022/03/23 20:58:31;;;;;;;7.22;2.20;;;;;;;5.66;22.91;101816.53;5111656;28;20100;-82
2022/03/23 21:01:00;;;;;;;7.47;2.27;;;;;;;5.72;22.85;101818.78;5097101;28;20032;-82
2022/03/23 21:03:27;;;;;;;7.38;2.70;;;;;;;5.65;23.13;101813.97;5134350;28;20027;-82
2022/03/23 21:05:57;;;;;;;15.95;8.15;;;;;;;5.62;23.16;101800.81;5096982;28;20031;-84
2022/03/23 21:08:33;;;;;;;10.95;3.65;;;;;;;5.60;23.48;101816.94;5078928;28;20039;-83
2022/03/23 21:10:59;;;;;;;6.22;3.20;;;;;;;5.50;23.53;101807.81;5094980;28;20028;-84
2022/03/23 21:13:26;;;;;;;8.52;3.33;;;;;;;5.44;24.08;101802.91;5096797;28;20035;-83
2022/03/23 21:15:52;;;;;;;8.30;3.30;;;;;;;5.44;24.09;101818.91;5110609;28;20024;-83
2022/03/23 21:18:17;;;;;;;13.68;5.53;;;;;;;5.26;24.50;101807.59;5093112;28;20062;-82
2022/03/23 21:20:44;;;;;;;14.57;5.20;;;;;;;5.20;24.52;101795.53;5093184;28;20044;-83
2022/03/23 21:23:11;;;;;;;12.90;5.18;;;;;;;5.07;25.03;101805.25;5109205;28;20736;-83
2022/03/23 21:25:37;;;;;;;14.23;5.15;;;;;;;5.02;25.31;101799.38;5076352;28;20048;-82
2022/03/23 21:28:12;;;;;;;17.63;7.65;;;;;;;4.99;25.24;101802.22;5075166;28;20043;-83
2022/03/23 21:30:39;;;;;;;25.15;11.63;;;;;;;4.84;25.75;101804.03;5085309;28;20040;-83
2022/03/23 21:33:05;;;;;;;21.52;7.60;;;;;;;4.73;25.82;101802.06;5111193;28;20040;-83
2022/03/23 21:35:32;;;;;;;16.73;6.95;;;;;;;4.62;25.88;101799.19;5094766;28;20499;-83
2022/03/23 21:37:57;;;;;;;15.15;6.78;;;;;;;4.55;26.12;101797.84;5109831;28;20031;-82
2022/03/23 21:40:26;;;;;;;10.33;5.40;;;;;;;4.40;26.04;101791.63;5108490;28;20479;-84
2022/03/23 21:42:53;;;;;;;13.27;4.95;;;;;;;4.41;26.20;101786.22;5101088;28;20043;-81
2022/03/23 21:45:19;;;;;;;15.27;4.65;;;;;;;4.28;26.38;101779.94;5111517;28;20043;-84
2022/03/23 21:47:45;;;;;;;9.82;4.93;;;;;;;4.25;26.68;101785.44;5111865;28;20035;-81
2022/03/23 21:50:13;;;;;;;9.70;4.80;;;;;;;4.10;26.89;101787.22;5108464;28;20069;-84
2022/03/23 21:52:39;;;;;;;10.00;4.40;;;;;;;3.96;26.93;101785.38;5110005;28;20024;-82
2022/03/23 21:55:07;;;;;;;12.13;4.50;;;;;;;3.97;26.91;101765.81;5105567;28;20122;-82
2022/03/23 21:57:36;;;;;;;12.00;4.25;;;;;;;3.88;27.45;101774.31;5105174;28;20400;-80
2022/03/23 22:00:08;;;;;;;10.18;5.00;;;;;;;3.88;28.34;101776.13;5092133;28;20028;-82
2022/03/23 22:03:17;;;;;;;12.35;4.65;;;;;;;3.75;27.24;101770.69;5091377;28;20032;-79
2022/03/23 22:05:50;;;;;;;10.27;4.22;;;;;;;3.54;27.92;101762.16;5127375;28;20035;-80
2022/03/23 22:08:50;;;;;;;14.13;4.22;;;;;;;3.44;28.05;101753.88;5118510;28;20100;-82
2022/03/23 22:11:38;;;;;;;11.65;4.47;;;;;;;3.56;28.17;101773.56;5093677;28;20043;-82
2022/03/23 22:14:05;;;;;;;12.65;5.75;;;;;;;3.41;28.77;101762.00;5113180;28;20196;-82
2022/03/23 22:16:33;;;;;;;22.05;9.70;;;;;;;3.27;29.69;101760.13;5085268;28;20035;-82
2022/03/23 22:19:22;;;;;;;25.10;10.80;;;;;;;3.16;30.89;101758.09;5109306;28;20027;-81
2022/03/23 22:22:25;;;;;;;29.77;10.98;;;;;;;3.16;31.21;101768.72;5130149;28;20039;-84
2022/03/23 22:25:20;;;;;;;28.95;11.73;;;;;;;2.89;31.93;101760.47;5119114;28;20016;-82
2022/03/23 22:28:24;;;;;;;;;;;;;;;;;;;;;
2022/03/23 22:31:35;;;;;;;43.08;19.23;;;;;;;2.71;32.16;101764.97;5113257;28;20141;-83
2022/03/23 22:34:26;;;;;;;21.92;9.77;;;;;;;2.65;31.93;101759.16;5119487;28;20081;-84
2022/03/23 22:36:56;;;;;;;22.45;9.00;;;;;;;2.61;31.61;101761.09;5123184;28;20039;-82
2022/03/23 22:39:23;;;;;;;20.77;8.75;;;;;;;2.59;31.62;101768.28;5108213;28;20066;-83
2022/03/23 22:41:49;;;;;;;20.02;8.57;;;;;;;2.49;31.98;101749.34;5112917;28;20031;-83
2022/03/23 22:44:15;;;;;;;20.83;9.68;;;;;;;2.44;32.41;101747.91;5112046;28;20047;-83
2022/03/23 22:46:41;;;;;;;20.15;8.98;;;;;;;2.39;33.15;101753.44;5106812;28;20036;-83
2022/03/23 22:49:09;;;;;;;19.65;7.82;;;;;;;2.30;33.54;101760.09;5092420;28;20188;-83
2022/03/23 22:51:35;;;;;;;17.52;6.97;;;;;;;2.02;33.86;101735.94;5105440;28;20032;-82
2022/03/23 22:54:03;;;;;;;17.27;7.47;;;;;;;2.02;34.21;101760.66;5074539;28;20039;-82
2022/03/23 22:56:31;;;;;;;16.85;6.95;;;;;;;1.94;34.51;101740.78;5108302;28;20297;-84
2022/03/23 22:59:00;;;;;;;17.25;7.28;;;;;;;1.83;34.30;101741.34;5095906;28;20100;-84
2022/03/23 23:01:29;;;;;;;16.08;7.47;;;;;;;1.77;34.43;101742.50;5072105;28;20119;-84
2022/03/23 23:03:57;;;;;;;20.33;8.23;;;;;;;1.85;33.98;101745.63;5097847;28;20420;-83
2022/03/23 23:06:25;;;;;;;21.63;8.18;;;;;;;1.78;34.04;101744.22;5118629;28;20049;-83
2022/03/23 23:08:51;;;;;;;21.48;7.53;;;;;;;1.81;34.10;101759.13;5104961;28;20031;-84
2022/03/23 23:11:21;;;;;;;17.45;6.90;;;;;;;1.88;32.72;101740.16;5098429;28;20400;-82
2022/03/23 23:13:55;;;;;;;17.27;6.90;;;;;;;1.78;32.78;101744.22;5112248;28;20031;-82
2022/03/23 23:16:20;;;;;;;14.50;6.47;;;;;;;1.90;31.97;101738.28;5114289;28;20035;-82
2022/03/23 23:18:46;;;;;;;13.43;5.67;;;;;;;1.91;31.43;101733.84;5086034;28;20035;-81
2022/03/23 23:21:13;;;;;;;11.87;5.13;;;;;;;1.90;30.90;101732.97;5117792;28;20310;-83
2022/03/23 23:23:40;;;;;;;11.35;5.03;;;;;;;1.99;30.38;101736.09;5112266;28;20032;-83
2022/03/23 23:26:08;;;;;;;10.30;4.22;;;;;;;2.07;29.67;101737.41;5120744;28;20108;-82
2022/03/23 23:28:44;;;;;;;9.15;4.15;;;;;;;2.15;29.54;101728.19;5107604;28;20079;-82
2022/03/23 23:31:12;;;;;;;10.48;4.13;;;;;;;2.15;29.41;101721.09;5120212;28;20039;-82
2022/03/23 23:33:45;;;;;;;9.75;3.88;;;;;;;2.21;28.82;101722.56;5104365;28;20159;-83
2022/03/23 23:36:13;;;;;;;9.88;5.20;;;;;;;2.24;28.54;101712.63;5120284;28;20051;-83
2022/03/23 23:38:39;;;;;;;8.48;3.40;;;;;;;2.38;28.10;101721.66;5111120;28;20051;-83
2022/03/23 23:41:07;;;;;;;8.38;3.90;;;;;;;2.47;28.08;101721.19;5119519;28;20064;-82
2022/03/23 23:43:33;;;;;;;6.72;3.38;;;;;;;2.43;27.46;101709.00;5131290;28;20391;-81
2022/03/23 23:46:01;;;;;;;6.68;3.15;;;;;;;2.53;27.56;101715.53;5099815;28;20108;-83
2022/03/23 23:48:27;;;;;;;7.80;3.33;;;;;;;2.60;27.49;101705.41;5095831;28;20500;-83
2022/03/23 23:50:56;;;;;;;10.98;3.80;;;;;;;2.62;27.43;101704.44;5098656;28;20066;-82
2022/03/23 23:53:26;;;;;;;7.32;3.45;;;;;;;2.68;27.59;101706.72;5109427;28;20040;-82
2022/03/23 23:55:52;;;;;;;7.30;3.83;;;;;;;2.62;27.68;101696.47;5113854;28;20019;-82
2022/03/23 23:58:19;;;;;;;10.27;4.25;;;;;;;2.77;27.03;101697.41;5095776;28;20075;-83
